Time;durP1;ratioP1;P1;durP2;ratioP2;P2;SDS_P1;SDS_P2;PMS_P1;PMS_P2;Temp;Humidity;BMP_temperature;BMP_pressure;BME280_temperature;BME280_humidity;BME280_pressure;Samples;Min_cycle;Max_cycle;Signal;HPM_P1;HPM_P2
2024/02/28 00:01:52;;;;;;;9.88;4.50;;;;;;;2.73;100.00;102093.47;5050018;28;20118;-85
2024/02/28 00:04:18;;;;;;;6.57;4.43;;;;;;;2.78;100.00;102091.50;5049877;28;20119;-85
2024/02/28 00:06:44;;;;;;;6.95;4.72;;;;;;;2.84;100.00;102093.06;5048932;28;20508;-85
2024/02/28 00:09:15;;;;;;;11.30;4.43;;;;;;;2.86;100.00;102088.59;5050517;28;20032;-85
2024/02/28 00:11:42;;;;;;;;;;;;;;;2.89;100.00;102091.09;5050636;28;20036;-85
2024/02/28 00:14:07;;;;;;;10.57;4.43;;;;;;;2.89;100.00;102077.94;5050031;28;19944;-85
2024/02/28 00:16:33;;;;;;;11.57;4.65;;;;;;;2.87;100.00;102085.03;5048367;28;20025;-85
2024/02/28 00:18:58;;;;;;;8.63;4.22;;;;;;;2.82;100.00;102084.34;5050291;28;20105;-85
2024/02/28 00:21:24;;;;;;;8.63;4.50;;;;;;;2.81;100.00;102088.75;5050098;28;20107;-84
2024/02/28 00:23:49;;;;;;;11.13;4.75;;;;;;;2.77;100.00;102087.16;5049088;28;20045;-80
2024/02/28 00:26:14;;;;;;;8.32;4.90;;;;;;;2.77;100.00;102083.69;5049561;28;20036;-86
2024/02/28 00:28:40;;;;;;;6.10;4.50;;;;;;;2.77;100.00;102081.06;5050467;28;20040;-86
2024/02/28 00:31:05;;;;;;;12.32;4.85;;;;;;;2.78;100.00;102072.25;5050328;28;20554;-86
2024/02/28 00:33:30;;;;;;;9.75;4.82;;;;;;;2.79;100.00;102068.69;5053595;28;20036;-86
2024/02/28 00:35:56;;;;;;;12.82;5.30;;;;;;;2.79;100.00;102068.69;5052432;28;20093;-86
2024/02/28 00:38:22;;;;;;;8.52;4.80;;;;;;;2.77;100.00;102074.00;5053580;28;20057;-86
2024/02/28 00:40:47;;;;;;;9.55;5.03;;;;;;;2.72;100.00;102072.50;5052175;28;20367;-86
2024/02/28 00:43:12;;;;;;;6.97;5.15;;;;;;;2.67;100.00;102074.44;5052925;28;20036;-86
2024/02/28 00:45:38;;;;;;;9.43;4.95;;;;;;;2.59;100.00;102074.72;5056458;28;20074;-86
2024/02/28 00:48:04;;;;;;;10.25;4.50;;;;;;;2.51;100.00;102082.00;5062239;28;20071;-86
2024/02/28 00:50:29;;;;;;;9.40;4.90;;;;;;;2.50;100.00;102083.78;5052335;28;20037;-86
2024/02/28 00:52:54;;;;;;;6.90;4.78;;;;;;;2.51;100.00;102087.25;5053488;28;20033;-85
2024/02/28 00:55:20;;;;;;;9.00;4.78;;;;;;;2.55;100.00;102083.63;5052216;28;20033;-86
2024/02/28 00:57:45;;;;;;;14.25;5.18;;;;;;;2.61;100.00;102088.66;5052796;28;20167;-85
2024/02/28 01:00:12;;;;;;;8.00;5.28;;;;;;;2.64;100.00;102084.16;5052898;28;20166;-86
2024/02/28 01:02:39;;;;;;;7.03;4.90;;;;;;;2.68;100.00;102092.75;5051140;28;20052;-85
2024/02/28 01:05:05;;;;;;;18.08;5.20;;;;;;;2.70;100.00;102076.94;5051627;28;20052;-86
2024/02/28 01:07:30;;;;;;;14.07;4.97;;;;;;;2.74;100.00;102084.63;5051272;28;20035;-83
2024/02/28 01:09:55;;;;;;;12.43;4.97;;;;;;;2.77;100.00;102087.16;5052530;28;20101;-86
2024/02/28 01:12:21;;;;;;;10.57;5.25;;;;;;;2.81;100.00;102085.28;5052688;28;20159;-85
2024/02/28 01:14:46;;;;;;;11.40;4.90;;;;;;;2.83;100.00;102086.06;5052588;28;20146;-86
2024/02/28 01:17:11;;;;;;;9.23;4.80;;;;;;;2.88;100.00;102088.53;5051753;28;20040;-84
2024/02/28 01:19:37;;;;;;;7.93;5.00;;;;;;;2.93;100.00;102083.97;5051017;28;20136;-85
2024/02/28 01:22:02;;;;;;;7.32;4.88;;;;;;;3.01;100.00;102084.50;5052627;28;20070;-87
2024/02/28 01:24:27;;;;;;;11.52;4.60;;;;;;;3.06;100.00;102079.94;5052978;28;20021;-87
2024/02/28 01:26:53;;;;;;;9.70;4.53;;;;;;;3.11;100.00;102071.88;5052993;28;20489;-86
2024/02/28 01:29:18;;;;;;;10.98;4.30;;;;;;;3.15;100.00;102073.44;5053057;28;20119;-87
2024/02/28 01:31:44;;;;;;;13.98;4.75;;;;;;;3.16;100.00;102075.16;5052736;28;20025;-87
2024/02/28 01:34:09;;;;;;;7.15;4.82;;;;;;;3.17;100.00;102075.09;5052855;28;20503;-87
2024/02/28 01:36:35;;;;;;;7.70;4.90;;;;;;;3.22;100.00;102068.81;5052195;28;20359;-83
2024/02/28 01:39:00;;;;;;;10.30;4.70;;;;;;;3.21;100.00;102067.97;5052296;28;20040;-87
2024/02/28 01:41:25;;;;;;;12.57;4.70;;;;;;;3.18;100.00;102071.56;5051004;28;20029;-86
2024/02/28 01:43:53;;;;;;;9.07;4.50;;;;;;;3.16;100.00;102065.50;5051424;28;20119;-86
2024/02/28 01:46:28;;;;;;;11.30;4.97;;;;;;;3.18;100.00;102066.28;5050441;28;20055;-86
2024/02/28 01:48:58;;;;;;;6.53;4.90;;;;;;;3.21;100.00;102074.97;5052039;28;20121;-86
2024/02/28 01:51:57;;;;;;;6.38;4.28;;;;;;;3.23;100.00;102073.16;5050482;28;20479;-86
2024/02/28 01:54:22;;;;;;;9.10;4.60;;;;;;;3.23;100.00;102075.78;5052455;28;20033;-88
2024/02/28 01:56:49;;;;;;;9.77;4.75;;;;;;;3.25;100.00;102084.47;5060661;28;20078;-86
2024/02/28 01:59:17;;;;;;;14.15;4.88;;;;;;;3.25;100.00;102071.31;5054275;28;20048;-88
2024/02/28 02:01:42;;;;;;;11.63;4.88;;;;;;;3.25;100.00;102074.78;5051802;28;20482;-85
2024/02/28 02:04:08;;;;;;;7.22;4.57;;;;;;;3.27;100.00;102069.47;5052066;28;20028;-85
2024/02/28 02:06:38;;;;;;;7.80;4.60;;;;;;;3.29;100.00;102070.28;5051306;28;20386;-85
2024/02/28 02:09:03;;;;;;;5.85;4.20;;;;;;;3.32;100.00;102065.72;5052029;28;20017;-86
2024/02/28 02:11:29;;;;;;;12.68;5.10;;;;;;;3.33;100.00;102070.09;5050172;28;20029;-86
2024/02/28 02:13:54;;;;;;;8.80;4.75;;;;;;;3.35;100.00;102072.66;5051370;28;20200;-86
2024/02/28 02:16:26;;;;;;;5.38;4.50;;;;;;;3.33;100.00;102071.88;5033823;28;20029;-86
2024/02/28 02:18:51;;;;;;;;;;;;;;;3.29;100.00;102070.28;5052344;28;20040;-85
2024/02/28 02:21:19;;;;;;;8.88;4.50;;;;;;;3.22;100.00;102069.66;5051554;28;19909;-86
2024/02/28 02:23:44;;;;;;;5.85;4.55;;;;;;;3.16;100.00;102083.03;5051068;28;20052;-85
2024/02/28 02:26:10;;;;;;;13.93;5.45;;;;;;;3.10;100.00;102067.50;5051294;28;20442;-85
2024/02/28 02:28:35;;;;;;;13.40;5.00;;;;;;;3.08;100.00;102080.72;5051693;28;20021;-86
2024/02/28 02:31:01;;;;;;;8.52;5.07;;;;;;;3.10;100.00;102080.66;5052546;28;20029;-84
2024/02/28 02:33:26;;;;;;;10.90;5.55;;;;;;;3.11;100.00;102077.13;5051299;28;20024;-86
2024/02/28 02:35:53;;;;;;;11.05;6.10;;;;;;;3.15;100.00;102084.84;5051258;28;20043;-86
2024/02/28 02:38:18;;;;;;;9.95;5.78;;;;;;;3.20;100.00;102065.38;5051140;28;20490;-86
2024/02/28 02:40:47;;;;;;;16.80;6.65;;;;;;;3.26;100.00;102073.88;5051547;28;20029;-84
2024/02/28 02:43:13;;;;;;;11.77;6.75;;;;;;;3.31;100.00;102073.69;5051079;28;20041;-85
2024/02/28 02:45:38;;;;;;;11.82;6.45;;;;;;;3.35;100.00;102073.50;5049403;28;20048;-85
2024/02/28 02:48:04;;;;;;;11.60;7.85;;;;;;;3.39;100.00;102076.88;5050822;28;20053;-85
2024/02/28 02:50:29;;;;;;;16.38;7.35;;;;;;;3.41;100.00;102066.28;5050821;28;20029;-86
2024/02/28 02:52:55;;;;;;;12.32;7.45;;;;;;;3.44;100.00;102060.91;5050823;28;20087;-85
2024/02/28 02:55:20;;;;;;;11.13;6.75;;;;;;;3.44;100.00;102061.75;5051079;28;20128;-85
2024/02/28 02:57:46;;;;;;;15.57;8.15;;;;;;;3.45;100.00;102044.16;5050674;28;20059;-85
2024/02/28 03:00:12;;;;;;;13.80;8.20;;;;;;;3.48;100.00;102055.44;5050521;28;20122;-85
2024/02/28 03:02:39;;;;;;;18.25;8.27;;;;;;;3.49;100.00;102051.03;5050641;28;20041;-86
2024/02/28 03:05:05;;;;;;;16.50;7.70;;;;;;;3.48;100.00;102055.44;5049349;28;20039;-86
2024/02/28 03:07:31;;;;;;;17.58;8.52;;;;;;;3.50;100.00;102050.13;5050642;28;20025;-85
2024/02/28 03:09:56;;;;;;;13.52;7.85;;;;;;;3.50;100.00;102050.97;5050571;28;20028;-84
2024/02/28 03:12:21;;;;;;;14.82;7.85;;;;;;;3.48;100.00;102044.06;5050448;28;20242;-85
2024/02/28 03:14:48;;;;;;;18.75;8.07;;;;;;;3.50;100.00;102047.50;5050555;28;20163;-81
2024/02/28 03:17:15;;;;;;;11.57;7.35;;;;;;;3.49;100.00;102051.91;5050481;28;20120;-86
2024/02/28 03:19:40;;;;;;;12.98;7.28;;;;;;;3.51;100.00;102047.41;5050960;28;20124;-85
2024/02/28 03:22:06;;;;;;;11.48;7.75;;;;;;;3.52;100.00;102043.88;5050508;28;20456;-85
2024/02/28 03:24:35;;;;;;;16.33;7.53;;;;;;;3.52;100.00;102048.28;5050293;28;20033;-85
2024/02/28 03:27:01;;;;;;;12.98;6.88;;;;;;;3.51;100.00;102044.78;5050533;28;20404;-86
2024/02/28 03:29:27;;;;;;;14.35;8.40;;;;;;;3.49;100.00;102044.00;5050656;28;20028;-86
2024/02/28 03:31:52;;;;;;;13.88;7.97;;;;;;;3.50;100.00;102032.53;5050817;28;20029;-87
2024/02/28 03:34:18;;;;;;;18.08;8.18;;;;;;;3.56;100.00;102041.13;5050423;28;20021;-84
2024/02/28 03:36:43;;;;;;;18.65;9.20;;;;;;;3.58;100.00;102047.16;5050169;28;20472;-85
2024/02/28 03:39:09;;;;;;;12.82;7.93;;;;;;;3.62;100.00;102052.22;5049220;28;20451;-85
2024/02/28 03:41:35;;;;;;;15.40;8.45;;;;;;;3.65;100.00;102048.63;5050261;28;20074;-85
2024/02/28 03:44:00;;;;;;;16.70;8.32;;;;;;;3.67;100.00;102047.66;5050041;28;20061;-84
2024/02/28 03:46:25;;;;;;;16.48;8.73;;;;;;;3.70;100.00;102044.88;5049890;28;20044;-85
2024/02/28 03:48:50;;;;;;;17.83;8.95;;;;;;;3.75;100.00;102035.91;5050056;28;20029;-86
2024/02/28 03:51:16;;;;;;;16.40;8.90;;;;;;;3.78;100.00;102036.66;5050202;28;20028;-85
2024/02/28 03:53:41;;;;;;;18.85;9.52;;;;;;;3.82;100.00;102032.09;5048544;28;20259;-86
2024/02/28 03:56:07;;;;;;;16.23;9.25;;;;;;;3.86;100.00;102049.47;5050295;28;20090;-86
2024/02/28 03:58:32;;;;;;;22.35;9.48;;;;;;;3.88;100.00;102051.13;5050795;28;20048;-86
2024/02/28 04:00:57;;;;;;;19.25;8.93;;;;;;;3.92;100.00;102061.53;5051739;28;20112;-78
2024/02/28 04:03:22;;;;;;;13.93;9.07;;;;;;;3.97;100.00;102051.66;5052914;28;20033;-78
2024/02/28 04:05:48;;;;;;;18.95;9.45;;;;;;;3.99;100.00;102055.94;5052847;28;20031;-78
2024/02/28 04:08:14;;;;;;;18.60;8.63;;;;;;;3.99;100.00;102055.09;5055304;28;20063;-78
2024/02/28 04:10:39;;;;;;;20.40;9.45;;;;;;;4.00;100.00;102054.16;5056671;28;20055;-77
2024/02/28 04:13:04;;;;;;;19.67;9.18;;;;;;;4.00;100.00;102055.03;5056382;28;20025;-77
2024/02/28 04:15:30;;;;;;;17.88;10.18;;;;;;;4.03;100.00;102051.38;5055092;28;20032;-77
2024/02/28 04:17:55;;;;;;;25.33;9.88;;;;;;;4.01;100.00;102051.44;5056229;28;20439;-79
2024/02/28 04:20:21;;;;;;;16.80;8.80;;;;;;;4.04;100.00;102061.00;5055936;28;20039;-77
2024/02/28 04:22:46;;;;;;;13.63;9.05;;;;;;;4.05;100.00;102057.44;5056507;28;20025;-77
2024/02/28 04:25:12;;;;;;;21.52;10.10;;;;;;;4.07;100.00;102063.50;5056388;28;20064;-78
2024/02/28 04:27:38;;;;;;;15.07;9.13;;;;;;;4.10;100.00;102073.06;5055412;28;20082;-77
2024/02/28 04:30:04;;;;;;;16.88;9.65;;;;;;;4.11;100.00;102070.34;5056377;28;20466;-78
2024/02/28 04:32:30;;;;;;;18.60;9.77;;;;;;;4.13;100.00;102073.75;5056109;28;20037;-77
2024/02/28 04:34:55;;;;;;;18.70;9.77;;;;;;;4.15;100.00;102071.94;5056333;28;20394;-77
2024/02/28 04:37:21;;;;;;;16.83;10.32;;;;;;;4.14;100.00;102069.38;5056007;28;20055;-78
2024/02/28 04:39:47;;;;;;;16.38;9.48;;;;;;;4.12;100.00;102076.47;5055713;28;20064;-78
2024/02/28 04:42:13;;;;;;;20.52;10.55;;;;;;;4.12;100.00;102082.59;5056137;28;20444;-76
2024/02/28 04:44:38;;;;;;;20.48;11.07;;;;;;;4.15;100.00;102078.97;5055996;28;20449;-77
2024/02/28 04:47:04;;;;;;;17.10;11.40;;;;;;;4.15;100.00;102081.59;5055678;28;20601;-77
2024/02/28 04:49:29;;;;;;;19.85;10.70;;;;;;;4.17;100.00;102080.63;5055815;28;20033;-78
2024/02/28 04:51:55;;;;;;;22.98;11.93;;;;;;;4.17;100.00;102075.34;5055837;28;20463;-76
2024/02/28 04:54:20;;;;;;;21.23;11.93;;;;;;;4.22;100.00;102083.03;5055640;28;20091;-77
2024/02/28 04:56:46;;;;;;;19.67;12.48;;;;;;;4.21;100.00;102083.97;5055480;28;20028;-76
2024/02/28 04:59:15;;;;;;;21.20;12.45;;;;;;;4.20;100.00;102082.25;5037830;28;20116;-77
2024/02/28 05:01:41;;;;;;;20.00;12.35;;;;;;;4.20;100.00;102077.84;5055630;28;20147;-77
2024/02/28 05:04:08;;;;;;;23.55;12.63;;;;;;;4.21;100.00;102084.84;5054047;28;20021;-76
2024/02/28 05:06:34;;;;;;;25.95;12.73;;;;;;;4.24;100.00;102084.69;5055341;28;20037;-77
2024/02/28 05:08:59;;;;;;;25.83;13.40;;;;;;;4.26;100.00;102082.00;5055345;28;20029;-78
2024/02/28 05:11:24;;;;;;;18.20;12.93;;;;;;;4.26;100.00;102087.25;5055638;28;20112;-78
2024/02/28 05:13:50;;;;;;;26.42;14.02;;;;;;;4.28;100.00;102087.19;5055369;28;20108;-78
2024/02/28 05:16:16;;;;;;;39.30;14.40;;;;;;;4.29;100.00;102081.00;5055150;28;20021;-77
2024/02/28 05:18:44;;;;;;;29.55;14.13;;;;;;;4.28;100.00;102080.13;5052649;28;20420;-77
2024/02/28 05:21:10;;;;;;;24.90;13.77;;;;;;;4.29;100.00;102089.75;5054516;28;20017;-78
2024/02/28 05:23:35;;;;;;;23.02;14.18;;;;;;;4.30;100.00;102078.31;5055273;28;20498;-77
2024/02/28 05:26:03;;;;;;;26.33;14.02;;;;;;;4.31;100.00;102090.53;5055146;28;20140;-77
2024/02/28 05:28:30;;;;;;;23.63;13.82;;;;;;;4.30;100.00;102094.13;5055298;28;20108;-77
2024/02/28 05:30:56;;;;;;;23.50;14.02;;;;;;;4.30;100.00;102087.97;5054879;28;20041;-76
2024/02/28 05:33:21;;;;;;;29.42;14.95;;;;;;;4.30;100.00;102088.84;5054656;28;20021;-77
2024/02/28 05:35:47;;;;;;;24.27;15.00;;;;;;;4.29;100.00;102089.75;5054819;28;20124;-78
2024/02/28 05:38:13;;;;;;;24.05;14.85;;;;;;;4.29;100.00;102088.91;5053429;28;20067;-77
2024/02/28 05:40:38;;;;;;;34.67;15.50;;;;;;;4.30;100.00;102095.88;5053470;28;20068;-78
2024/02/28 05:43:04;;;;;;;22.92;14.38;;;;;;;4.31;100.00;102092.31;5054569;28;20040;-79
2024/02/28 05:45:29;;;;;;;27.88;15.00;;;;;;;4.30;100.00;102088.84;5054721;28;20037;-77
2024/02/28 05:47:55;;;;;;;25.27;14.70;;;;;;;4.32;100.00;102089.63;5054580;28;20148;-77
2024/02/28 05:50:20;;;;;;;28.98;14.68;;;;;;;4.33;100.00;102075.53;5054984;28;20025;-77
2024/02/28 05:52:45;;;;;;;33.15;14.88;;;;;;;4.33;100.00;102077.28;5053211;28;20051;-77
2024/02/28 05:55:11;;;;;;;21.65;13.70;;;;;;;4.33;100.00;102072.03;5054424;28;20112;-77
2024/02/28 05:57:38;;;;;;;25.33;14.75;;;;;;;4.33;100.00;102085.19;5054678;28;20028;-76
2024/02/28 06:00:09;;;;;;;23.15;13.90;;;;;;;4.33;100.00;102086.06;5054350;28;20075;-77
2024/02/28 06:02:38;;;;;;;32.30;15.73;;;;;;;4.33;100.00;102082.56;5055369;28;20032;-78
2024/02/28 06:05:04;;;;;;;34.55;15.68;;;;;;;4.34;100.00;102079.00;5054343;28;20059;-77
2024/02/28 06:07:30;;;;;;;29.08;15.40;;;;;;;4.33;100.00;102082.56;5054380;28;20083;-78
2024/02/28 06:09:55;;;;;;;33.63;16.40;;;;;;;4.33;100.00;102090.47;5054159;28;20029;-78
2024/02/28 06:12:20;;;;;;;24.65;15.65;;;;;;;4.32;100.00;102088.78;5054471;28;20029;-78
2024/02/28 06:14:46;;;;;;;28.65;15.52;;;;;;;4.32;100.00;102091.41;5054585;28;20039;-80
2024/02/28 06:17:11;;;;;;;25.20;15.02;;;;;;;4.31;100.00;102095.81;5053267;28;20029;-80
2024/02/28 06:19:37;;;;;;;27.40;16.27;;;;;;;4.30;100.00;102102.03;5053920;28;20041;-80
2024/02/28 06:22:02;;;;;;;23.15;16.42;;;;;;;4.32;100.00;102101.94;5054418;28;20029;-79
2024/02/28 06:24:27;;;;;;;31.48;16.95;;;;;;;4.33;100.00;102098.38;5053863;28;20128;-81
2024/02/28 06:26:53;;;;;;;26.10;16.33;;;;;;;4.33;100.00;102103.63;5054248;28;20479;-80
2024/02/28 06:29:20;;;;;;;27.75;16.70;;;;;;;4.33;100.00;102107.16;5053952;28;20483;-81
2024/02/28 06:31:50;;;;;;;25.10;16.40;;;;;;;4.36;100.00;102114.91;5054422;28;20062;-81
2024/02/28 06:34:15;;;;;;;27.90;16.27;;;;;;;4.38;100.00;102126.25;5054089;28;20106;-80
2024/02/28 06:36:40;;;;;;;26.25;16.10;;;;;;;4.40;100.00;102136.72;5052563;28;20105;-79
2024/02/28 06:39:06;;;;;;;30.88;16.63;;;;;;;4.42;100.00;102126.97;5054035;28;20057;-78
2024/02/28 06:41:31;;;;;;;27.88;15.85;;;;;;;4.44;100.00;102133.03;5054482;28;20039;-79
2024/02/28 06:43:56;;;;;;;30.85;17.25;;;;;;;4.44;100.00;102121.63;5054236;28;20033;-77
2024/02/28 06:46:25;;;;;;;29.58;17.05;;;;;;;4.45;100.00;102136.50;5053195;28;20068;-78
2024/02/28 06:48:50;;;;;;;27.98;17.50;;;;;;;4.45;100.00;102137.38;5054545;28;20017;-78
2024/02/28 06:51:17;;;;;;;26.00;17.73;;;;;;;4.47;100.00;102146.06;5054368;28;20080;-81
2024/02/28 06:53:42;;;;;;;27.73;17.35;;;;;;;4.48;100.00;102139.88;5054552;28;20029;-78
2024/02/28 06:56:08;;;;;;;28.42;17.00;;;;;;;4.48;100.00;102142.53;5053748;28;20029;-77
2024/02/28 06:58:33;;;;;;;25.33;16.90;;;;;;;4.52;100.00;102143.22;5053271;28;20467;-76
2024/02/28 07:00:58;;;;;;;30.13;17.75;;;;;;;4.54;100.00;102136.97;5053523;28;20036;-77
2024/02/28 07:03:24;;;;;;;38.22;17.15;;;;;;;4.55;100.00;102136.06;5051500;28;20032;-79
2024/02/28 07:05:49;;;;;;;32.22;18.10;;;;;;;4.59;100.00;102144.66;5052106;28;20459;-78
2024/02/28 07:08:14;;;;;;;28.45;18.02;;;;;;;4.60;100.00;102146.38;5053400;28;20075;-80
2024/02/28 07:10:43;;;;;;;27.20;17.00;;;;;;;4.62;100.00;102152.44;5051392;28;20029;-76
2024/02/28 07:13:09;;;;;;;33.30;17.50;;;;;;;4.63;100.00;102142.75;5051780;28;20055;-78
2024/02/28 07:15:34;;;;;;;34.08;16.55;;;;;;;4.65;100.00;102138.28;5051576;28;20029;-78
2024/02/28 07:18:00;;;;;;;28.20;15.80;;;;;;;4.68;100.00;102151.31;5052127;28;20040;-78
2024/02/28 07:20:26;;;;;;;30.95;16.65;;;;;;;4.70;100.00;102158.25;5052255;28;20028;-78
2024/02/28 07:22:51;;;;;;;27.25;16.13;;;;;;;4.72;100.00;102156.38;5053259;28;20024;-77
2024/02/28 07:25:17;;;;;;;30.20;16.25;;;;;;;4.75;100.00;102158.88;5052579;28;20395;-78
2024/02/28 07:27:42;;;;;;;29.33;16.80;;;;;;;4.78;100.00;102149.97;5051828;28;20108;-78
2024/02/28 07:30:08;;;;;;;31.10;16.25;;;;;;;4.80;100.00;102153.41;5051309;28;20095;-78
2024/02/28 07:32:34;;;;;;;30.33;16.05;;;;;;;4.83;100.00;102153.25;5051306;28;20032;-78
2024/02/28 07:35:01;;;;;;;25.85;16.13;;;;;;;4.87;100.00;102154.84;5053056;28;20043;-79
2024/02/28 07:37:26;;;;;;;25.98;16.40;;;;;;;4.92;100.00;102166.00;5051204;28;20082;-78
2024/02/28 07:39:51;;;;;;;39.65;16.42;;;;;;;4.98;100.00;102164.03;5053808;28;20078;-77
2024/02/28 07:42:17;;;;;;;25.40;18.25;;;;;;;5.02;100.00;102168.25;5055389;28;20521;-78
2024/02/28 07:44:43;;;;;;;29.58;16.48;;;;;;;5.06;100.00;102170.69;5056693;28;20424;-77
2024/02/28 07:47:08;;;;;;;30.88;16.20;;;;;;;5.08;100.00;102173.25;5054027;28;20044;-80
2024/02/28 07:49:34;;;;;;;29.58;16.17;;;;;;;5.07;100.00;102182.06;5054848;28;20037;-80
2024/02/28 07:51:59;;;;;;;24.63;15.90;;;;;;;5.08;100.00;102189.06;5055427;28;20029;-78
2024/02/28 07:54:24;;;;;;;32.95;16.30;;;;;;;5.09;100.00;102189.00;5056071;28;20551;-77
2024/02/28 07:56:50;;;;;;;28.60;16.80;;;;;;;5.10;100.00;102190.69;5056601;28;20040;-78
2024/02/28 07:59:15;;;;;;;35.95;17.23;;;;;;;5.11;100.00;102194.22;5056325;28;20032;-79
2024/02/28 08:01:41;;;;;;;29.02;17.55;;;;;;;5.12;100.00;102198.56;5055925;28;20050;-78
2024/02/28 08:04:07;;;;;;;34.13;17.60;;;;;;;5.16;100.00;102186.09;5056485;28;20426;-80
2024/02/28 08:06:33;;;;;;;28.73;16.50;;;;;;;5.18;100.00;102192.13;5056542;28;20040;-79
2024/02/28 08:08:58;;;;;;;34.83;17.88;;;;;;;5.23;100.00;102196.28;5054994;28;20479;-80
2024/02/28 08:11:24;;;;;;;39.38;17.73;;;;;;;5.26;100.00;102200.56;5055327;28;20040;-79
2024/02/28 08:13:50;;;;;;;34.47;18.27;;;;;;;5.26;100.00;102197.94;5055700;28;20029;-80
2024/02/28 08:16:16;;;;;;;47.63;18.63;;;;;;;5.29;100.00;102205.69;5055829;28;20542;-78
2024/02/28 08:18:41;;;;;;;40.40;18.58;;;;;;;5.32;100.00;102208.19;5054383;28;20057;-78
2024/02/28 08:21:07;;;;;;;34.63;19.08;;;;;;;5.37;100.00;102205.34;5055239;28;20386;-80
2024/02/28 08:23:32;;;;;;;38.35;18.52;;;;;;;5.42;100.00;102208.59;5056358;28;20087;-79
2024/02/28 08:25:57;;;;;;;36.08;20.17;;;;;;;5.45;100.00;102205.84;5056027;28;20175;-78
2024/02/28 08:28:23;;;;;;;39.95;19.75;;;;;;;5.48;100.00;102206.53;5054856;28;20021;-78
2024/02/28 08:30:49;;;;;;;38.38;19.65;;;;;;;5.52;100.00;102209.03;5055711;28;20498;-78
2024/02/28 08:33:14;;;;;;;34.35;19.48;;;;;;;5.55;100.00;102215.00;5055969;28;20028;-78
2024/02/28 08:35:40;;;;;;;35.25;19.42;;;;;;;5.58;100.00;102209.63;5055959;28;20032;-79
2024/02/28 08:38:05;;;;;;;42.55;18.58;;;;;;;5.58;100.00;102206.09;5055862;28;20111;-79
2024/02/28 08:40:30;;;;;;;37.28;19.25;;;;;;;5.62;100.00;102216.44;5054387;28;20111;-80
2024/02/28 08:42:56;;;;;;;32.97;18.63;;;;;;;5.64;100.00;102219.88;5055769;28;20025;-79
2024/02/28 08:45:24;;;;;;;32.58;18.85;;;;;;;5.65;100.00;102218.94;5055964;28;20036;-80
2024/02/28 08:47:50;;;;;;;35.58;19.73;;;;;;;5.70;100.00;102218.72;5055343;28;20468;-79
2024/02/28 08:50:15;;;;;;;31.67;18.65;;;;;;;5.72;100.00;102219.50;5055972;28;20037;-80
2024/02/28 08:52:40;;;;;;;38.58;19.02;;;;;;;5.78;100.00;102213.09;5054083;28;20040;-80
2024/02/28 08:55:06;;;;;;;26.98;19.58;;;;;;;5.84;100.00;102204.84;5054505;28;20021;-78
2024/02/28 08:57:31;;;;;;;31.10;18.23;;;;;;;5.90;100.00;102215.13;5055454;28;20021;-78
2024/02/28 08:59:57;;;;;;;41.72;18.55;;;;;;;6.03;100.00;102217.19;5055456;28;20517;-79
2024/02/28 09:02:22;;;;;;;32.35;18.40;;;;;;;6.06;100.00;102212.63;5055606;28;20471;-77
2024/02/28 09:04:51;;;;;;;30.65;18.20;;;;;;;6.05;100.00;102210.91;5055512;28;20483;-79
2024/02/28 09:07:20;;;;;;;30.77;18.27;;;;;;;6.06;100.00;102214.38;5055606;28;20028;-79
2024/02/28 09:09:46;;;;;;;32.95;18.88;;;;;;;6.07;100.00;102213.47;5055300;28;20100;-80
2024/02/28 09:12:13;;;;;;;40.28;17.67;;;;;;;6.07;100.00;102213.47;5055482;28;20056;-78
2024/02/28 09:14:39;;;;;;;28.08;16.60;;;;;;;6.10;100.00;102213.31;5055220;28;20100;-78
2024/02/28 09:17:04;;;;;;;34.83;17.60;;;;;;;6.21;100.00;102205.72;5055109;28;20145;-77
2024/02/28 09:19:31;;;;;;;32.63;18.02;;;;;;;6.30;100.00;102202.59;5055562;28;20024;-81
2024/02/28 09:21:57;;;;;;;32.38;17.42;;;;;;;6.40;100.00;102202.13;5055026;28;20029;-78
2024/02/28 09:24:23;;;;;;;29.52;17.00;;;;;;;6.52;100.00;102210.28;5055238;28;20028;-79
2024/02/28 09:26:48;;;;;;;28.40;17.40;;;;;;;6.67;100.00;102207.75;5055289;28;20055;-78
2024/02/28 09:29:14;;;;;;;29.55;17.85;;;;;;;6.71;100.00;102220.75;5055150;28;20112;-78
2024/02/28 09:31:39;;;;;;;27.33;17.38;;;;;;;6.81;100.00;102215.84;5054759;28;20021;-79
2024/02/28 09:34:07;;;;;;;30.40;17.75;;;;;;;6.92;100.00;102225.00;5055167;28;20502;-81
2024/02/28 09:36:39;;;;;;;24.45;16.08;;;;;;;6.93;100.00;102217.00;5055139;28;20192;-78
2024/02/28 09:39:05;;;;;;;30.10;17.25;;;;;;;7.01;100.00;102220.06;5055852;28;20029;-78
2024/02/28 09:41:30;;;;;;;27.25;15.90;;;;;;;7.01;100.00;102217.41;5055569;28;20029;-77
2024/02/28 09:43:57;;;;;;;23.30;17.08;;;;;;;7.12;100.00;102216.00;5055479;28;20036;-79
2024/02/28 09:46:22;;;;;;;21.92;15.15;;;;;;;7.21;100.00;102212.84;5055881;28;20036;-79
2024/02/28 09:48:50;;;;;;;36.60;16.10;;;;;;;7.28;100.00;102211.56;5055359;28;20471;-79
2024/02/28 09:51:18;;;;;;;31.55;16.35;;;;;;;7.29;100.00;102208.00;5056130;28;20033;-78
2024/02/28 09:53:46;;;;;;;24.50;16.17;;;;;;;7.30;100.00;102199.13;5055800;28;20029;-80
2024/02/28 09:56:12;;;;;;;26.17;16.00;;;;;;;7.21;100.00;102199.59;5056417;28;20029;-78
2024/02/28 09:58:39;;;;;;;31.33;17.50;;;;;;;7.13;100.00;102199.19;5058372;28;20037;-78
2024/02/28 10:01:09;;;;;;;31.00;17.85;;;;;;;7.07;100.00;102198.56;5064957;28;20096;-80
2024/02/28 10:03:36;;;;;;;30.50;18.27;;;;;;;7.02;100.00;102207.69;5067330;28;20025;-79
2024/02/28 10:06:02;;;;;;;31.92;16.52;;;;;;;7.09;100.00;102208.22;5070563;28;20031;-81
2024/02/28 10:08:29;;;;;;;30.73;17.40;;;;;;;7.15;100.00;102203.47;5070111;28;20009;-80
2024/02/28 10:10:55;;;;;;;41.85;20.50;;;;;;;7.24;100.00;102199.47;5075675;28;20052;-81
2024/02/28 10:13:21;;;;;;;35.95;19.02;;;;;;;7.21;100.00;102195.19;5073837;28;20084;-81
2024/02/28 10:15:49;;;;;;;37.53;18.67;;;;;;;7.17;100.00;102196.28;5072384;28;20087;-81
2024/02/28 10:18:14;;;;;;;34.03;19.42;;;;;;;7.26;100.00;102197.56;5065299;28;20021;-79
2024/02/28 10:20:40;;;;;;;35.83;19.73;;;;;;;7.32;100.00;102201.69;5056215;28;20025;-79
2024/02/28 10:23:08;;;;;;;35.28;18.80;;;;;;;7.28;100.00;102198.31;5055577;28;20100;-79
2024/02/28 10:25:33;;;;;;;31.40;19.20;;;;;;;7.34;100.00;102197.97;5055062;28;20036;-80
2024/02/28 10:28:00;;;;;;;32.95;18.17;;;;;;;7.41;100.00;102195.88;5054744;28;20497;-78
2024/02/28 10:30:26;;;;;;;29.75;17.70;;;;;;;7.46;100.00;102195.59;5053205;28;20075;-79
2024/02/28 10:32:51;;;;;;;30.55;16.70;;;;;;;7.40;100.00;102195.03;5052858;28;20486;-78
2024/02/28 10:35:21;;;;;;;26.98;17.58;;;;;;;7.29;100.00;102189.47;5052901;28;20032;-80
2024/02/28 10:37:47;;;;;;;31.58;18.55;;;;;;;7.20;100.00;102193.47;5053924;28;20521;-77
2024/02/28 10:40:17;;;;;;;27.85;18.23;;;;;;;7.16;100.00;102191.91;5054079;28;20033;-78
2024/02/28 10:42:43;;;;;;;30.52;17.63;;;;;;;7.16;100.00;102193.72;5053920;28;20036;-78
2024/02/28 10:45:12;;;;;;;32.30;18.45;;;;;;;7.16;100.00;102196.38;5054200;28;20035;-80
2024/02/28 10:47:41;;;;;;;28.38;18.75;;;;;;;7.17;100.00;102198.06;5053597;28;20049;-79
2024/02/28 10:50:07;;;;;;;35.22;18.65;;;;;;;7.21;100.00;102195.19;5053695;28;20582;-79
2024/02/28 10:52:42;;;;;;;31.20;17.80;;;;;;;7.26;100.00;102196.72;5054459;28;20029;-78
2024/02/28 10:55:09;;;;;;;30.33;19.45;;;;;;;7.28;100.00;102200.13;5052746;28;20055;-78
2024/02/28 10:57:39;;;;;;;32.17;18.65;;;;;;;7.27;100.00;102204.59;5052306;28;20476;-79
2024/02/28 11:00:05;;;;;;;31.27;19.08;;;;;;;7.26;100.00;102196.72;5052509;28;20223;-79
2024/02/28 11:02:32;;;;;;;32.03;19.20;;;;;;;7.25;100.00;102193.19;5054040;28;20056;-78
2024/02/28 11:05:00;;;;;;;33.42;18.90;;;;;;;7.32;100.00;102197.22;5053494;28;20050;-78
2024/02/28 11:07:25;;;;;;;27.33;17.65;;;;;;;7.29;100.00;102197.41;5053810;28;20108;-79
2024/02/28 11:09:55;;;;;;;25.55;17.15;;;;;;;7.33;100.00;102200.72;5053619;28;20116;-77